Time;durP1;ratioP1;P1;durP2;ratioP2;P2;SDS_P1;SDS_P2;PMS_P1;PMS_P2;Temp;Humidity;BMP_temperature;BMP_pressure;BME280_temperature;BME280_humidity;BME280_pressure;Samples;Min_cycle;Max_cycle;Signal;HPM_P1;HPM_P2
2022/01/16 00:01:36;;;;;;;29.75;15.27;;;4.40;66.50;;;;;;5068981;28;20197;-73
2022/01/16 00:04:24;;;;;;;32.47;15.45;;;4.40;66.50;;;;;;5069566;28;20040;-71
2022/01/16 00:06:50;;;;;;;32.95;16.42;;;4.40;66.30;;;;;;5067290;28;20457;-71
2022/01/16 00:09:15;;;;;;;25.67;15.45;;;4.40;66.30;;;;;;5070744;28;20036;-70
2022/01/16 00:11:42;;;;;;;26.55;15.25;;;4.50;66.30;;;;;;5071051;28;20057;-72
2022/01/16 00:14:09;;;;;;;28.85;14.73;;;4.50;66.20;;;;;;5071425;28;20105;-71
2022/01/16 00:16:35;;;;;;;34.15;17.42;;;4.50;66.10;;;;;;5070563;28;20040;-71
2022/01/16 00:19:01;;;;;;;30.98;16.83;;;4.50;65.80;;;;;;5068149;28;20063;-73
2022/01/16 00:21:31;;;;;;;31.65;16.40;;;4.50;65.60;;;;;;5069012;28;20028;-72
2022/01/16 00:23:56;;;;;;;29.10;15.18;;;4.50;65.50;;;;;;5068335;28;20032;-73
2022/01/16 00:26:23;;;;;;;27.50;14.40;;;4.40;65.40;;;;;;5068836;28;20374;-73
2022/01/16 00:28:50;;;;;;;34.95;18.73;;;4.40;65.40;;;;;;5050401;28;20470;-74
2022/01/16 00:31:17;;;;;;;34.90;19.60;;;4.30;65.40;;;;;;5069228;28;20046;-72
2022/01/16 00:33:44;;;;;;;37.33;19.33;;;4.30;65.60;;;;;;5067731;28;20139;-71
2022/01/16 00:36:12;;;;;;;29.70;15.10;;;4.30;65.60;;;;;;5068398;28;20024;-71
2022/01/16 00:38:40;;;;;;;27.58;14.45;;;4.20;65.70;;;;;;5072324;28;20029;-72
2022/01/16 00:41:06;;;;;;;24.30;14.25;;;4.20;65.70;;;;;;5071934;28;20017;-72
2022/01/16 00:43:31;;;;;;;29.08;15.10;;;4.20;65.80;;;;;;5054953;28;20043;-72
2022/01/16 00:45:57;;;;;;;27.10;14.77;;;4.30;65.80;;;;;;5071582;28;20024;-74
2022/01/16 00:48:23;;;;;;;31.95;15.70;;;4.20;65.80;;;;;;5070007;28;20032;-72
2022/01/16 00:50:49;;;;;;;31.40;15.68;;;4.30;65.80;;;;;;5066912;28;20111;-73
2022/01/16 00:53:14;;;;;;;27.35;14.38;;;4.30;65.70;;;;;;5053390;28;20409;-71
2022/01/16 00:55:41;;;;;;;29.02;14.35;;;4.30;65.80;;;;;;5068701;28;20032;-72
2022/01/16 00:58:07;;;;;;;25.80;15.20;;;4.30;65.70;;;;;;5069929;28;20318;-72
2022/01/16 01:00:33;;;;;;;25.17;13.90;;;4.20;65.80;;;;;;5068498;28;20025;-73
2022/01/16 01:03:05;;;;;;;29.98;15.68;;;4.20;66.10;;;;;;5067719;28;20040;-73
2022/01/16 01:05:32;;;;;;;28.55;14.45;;;4.20;66.10;;;;;;5066735;28;20032;-72
2022/01/16 01:10:46;;;;;;;30.60;14.75;;;4.10;66.70;;;;;;5069091;28;20047;-72
2022/01/16 01:13:22;;;;;;;29.20;14.98;;;4.00;66.60;;;;;;5070132;28;20052;-72
2022/01/16 01:15:51;;;;;;;26.20;14.13;;;4.00;66.80;;;;;;5068443;28;20553;-73
2022/01/16 01:18:20;;;;;;;28.05;14.18;;;4.00;67.10;;;;;;5069056;28;20036;-72
2022/01/16 01:20:48;;;;;;;31.88;15.70;;;3.90;67.20;;;;;;5052912;28;20032;-73
2022/01/16 01:23:15;;;;;;;30.42;16.23;;;4.00;67.20;;;;;;5068470;28;20036;-72
2022/01/16 01:25:42;;;;;;;31.17;14.55;;;4.00;67.00;;;;;;5072239;28;20025;-71
2022/01/16 01:28:09;;;;;;;30.60;15.55;;;3.90;67.20;;;;;;5051166;28;20082;-72
2022/01/16 01:30:37;;;;;;;30.88;14.95;;;3.80;67.10;;;;;;5069298;28;20115;-72
2022/01/16 01:33:02;;;;;;;32.33;16.23;;;3.80;67.20;;;;;;5068144;28;20144;-72
2022/01/16 01:35:30;;;;;;;30.65;15.35;;;3.80;67.30;;;;;;5069218;28;20514;-72
2022/01/16 01:37:56;;;;;;;31.38;16.20;;;3.90;67.40;;;;;;5050031;28;20373;-73
2022/01/16 01:40:24;;;;;;;29.25;15.30;;;3.80;67.20;;;;;;5050298;28;20028;-72
2022/01/16 01:43:05;;;;;;;27.92;16.63;;;3.80;67.40;;;;;;5066706;28;20032;-75
2022/01/16 01:51:17;;;;;;;35.15;17.48;;;3.80;67.80;;;;;;5068970;28;20043;-71
2022/01/16 01:53:44;;;;;;;31.08;16.75;;;3.70;67.90;;;;;;5070536;28;20044;-72
2022/01/16 01:56:13;;;;;;;40.75;15.90;;;3.60;68.10;;;;;;5069902;28;20059;-72
2022/01/16 01:58:39;;;;;;;34.72;16.55;;;3.60;68.30;;;;;;5068944;28;20039;-73
2022/01/16 02:01:05;;;;;;;35.80;16.90;;;3.60;68.30;;;;;;5050500;28;20024;-72
2022/01/16 02:03:42;;;;;;;28.75;16.42;;;3.60;68.40;;;;;;5068193;28;20090;-72
2022/01/16 02:06:20;;;;;;;30.00;15.38;;;3.60;68.30;;;;;;5068292;28;20070;-72
2022/01/16 02:08:50;;;;;;;29.98;16.42;;;3.60;68.30;;;;;;5064016;28;20032;-71
2022/01/16 02:11:17;;;;;;;38.55;15.82;;;3.70;68.30;;;;;;5068811;28;20461;-72
2022/01/16 02:35:27;;;;;;;31.83;16.95;;;3.50;68.80;;;;;;5066729;28;20449;-72
2022/01/16 02:37:52;;;;;;;28.33;15.95;;;3.50;68.90;;;;;;5065185;28;20036;-72
2022/01/16 02:40:23;;;;;;;36.45;18.02;;;3.50;68.90;;;;;;5048107;28;20119;-72
2022/01/16 02:42:51;;;;;;;35.88;17.88;;;3.40;69.00;;;;;;5065628;28;20028;-74
2022/01/16 02:45:28;;;;;;;34.53;17.15;;;3.30;69.10;;;;;;5065353;28;20466;-71
2022/01/16 02:47:56;;;;;;;35.42;19.02;;;3.40;69.10;;;;;;5064109;28;20032;-72
2022/01/16 02:50:23;;;;;;;34.42;18.27;;;3.40;69.30;;;;;;5065768;28;20032;-71
2022/01/16 02:52:49;;;;;;;37.55;18.25;;;3.40;69.40;;;;;;5065696;28;20021;-74
2022/01/16 02:55:15;;;;;;;39.25;18.40;;;3.30;69.40;;;;;;5065393;28;20029;-72
2022/01/16 02:57:41;;;;;;;31.08;18.30;;;3.30;69.50;;;;;;5066152;28;20469;-72
2022/01/16 03:00:08;;;;;;;32.72;19.08;;;3.30;69.70;;;;;;5048357;28;20040;-73
2022/01/16 03:02:34;;;;;;;33.22;18.20;;;3.30;69.80;;;;;;5064957;28;20036;-73
2022/01/16 03:05:00;;;;;;;38.00;18.52;;;3.30;69.80;;;;;;5063908;28;20654;-71
2022/01/16 03:07:26;;;;;;;32.00;18.05;;;3.30;69.90;;;;;;5065539;28;20021;-74
2022/01/16 03:12:49;;;;;;;36.03;19.70;;;3.20;69.80;;;;;;5062524;28;20080;-74
2022/01/16 03:15:18;;;;;;;33.95;17.70;;;3.10;70.00;;;;;;5047514;28;20040;-72
2022/01/16 03:23:13;;;;;;;40.78;19.10;;;3.10;70.20;;;;;;5064918;28;20047;-73
2022/01/16 03:25:39;;;;;;;41.08;20.05;;;3.10;70.20;;;;;;5065544;28;20103;-72
2022/01/16 03:28:05;;;;;;;37.63;19.88;;;3.10;70.20;;;;;;5066269;28;20119;-73
2022/01/16 03:30:31;;;;;;;41.38;20.58;;;3.10;70.20;;;;;;5065395;28;20029;-72
2022/01/16 03:32:57;;;;;;;38.67;20.77;;;3.10;70.30;;;;;;5064442;28;20531;-72
2022/01/16 03:35:23;;;;;;;37.65;20.65;;;3.10;70.30;;;;;;5064065;28;20036;-72
2022/01/16 03:37:50;;;;;;;38.00;21.13;;;3.10;70.50;;;;;;5064932;28;20140;-74
2022/01/16 03:40:17;;;;;;;36.65;21.10;;;3.00;70.30;;;;;;5047468;28;20032;-73
2022/01/16 03:42:42;;;;;;;38.15;20.30;;;3.00;70.40;;;;;;5065254;28;20159;-72
2022/01/16 03:45:09;;;;;;;37.92;20.75;;;3.00;70.50;;;;;;5065431;28;20101;-73
2022/01/16 03:47:35;;;;;;;35.70;20.13;;;3.00;70.60;;;;;;5065274;28;20059;-73
2022/01/16 03:50:03;;;;;;;33.22;20.38;;;2.90;70.60;;;;;;5046101;28;20451;-73
2022/01/16 03:52:28;;;;;;;34.90;20.10;;;2.90;70.60;;;;;;5064990;28;20516;-72
2022/01/16 03:54:54;;;;;;;35.42;20.58;;;2.90;70.70;;;;;;5064231;28;20029;-73
2022/01/16 03:57:20;;;;;;;39.00;20.10;;;2.80;70.90;;;;;;5048655;28;20119;-74
2022/01/16 03:59:46;;;;;;;33.08;19.13;;;2.80;71.00;;;;;;5068745;28;20024;-72
2022/01/16 04:02:12;;;;;;;32.20;18.67;;;2.80;71.00;;;;;;5065128;28;20119;-73
2022/01/16 04:04:37;;;;;;;31.58;18.30;;;2.90;71.00;;;;;;5064576;28;20037;-72
2022/01/16 04:07:03;;;;;;;32.13;18.20;;;2.90;71.00;;;;;;5061726;28;20063;-72
2022/01/16 04:09:30;;;;;;;33.45;17.40;;;2.70;71.30;;;;;;5043245;28;20496;-73
2022/01/16 04:11:57;;;;;;;31.17;17.65;;;2.70;71.70;;;;;;5062857;28;20104;-72
2022/01/16 04:17:21;;;;;;;29.98;16.55;;;2.70;71.90;;;;;;5065041;28;20043;-73
2022/01/16 04:19:47;;;;;;;31.77;16.35;;;2.70;71.90;;;;;;5049550;28;20097;-73
2022/01/16 04:22:14;;;;;;;30.73;17.40;;;2.70;72.10;;;;;;5049428;28;20465;-72
2022/01/16 04:24:40;;;;;;;28.75;17.73;;;2.60;71.90;;;;;;5066732;28;20500;-72
2022/01/16 04:27:10;;;;;;;35.28;19.15;;;2.60;72.00;;;;;;5068635;28;20025;-71
2022/01/16 04:29:36;;;;;;;28.33;17.80;;;2.70;72.10;;;;;;5067317;28;20111;-72
2022/01/16 04:32:02;;;;;;;31.38;17.48;;;2.60;72.20;;;;;;5068237;28;20047;-72
2022/01/16 04:34:28;;;;;;;30.55;17.73;;;2.70;72.10;;;;;;5051294;28;20493;-72
2022/01/16 04:36:54;;;;;;;30.42;17.42;;;2.70;71.90;;;;;;5069866;28;20381;-72
2022/01/16 04:39:21;;;;;;;29.92;17.42;;;2.70;72.00;;;;;;5069169;28;20078;-72
2022/01/16 04:44:32;;;;;;;38.00;18.20;;;2.60;72.60;;;;;;5070057;28;20050;-72
2022/01/16 04:46:58;;;;;;;30.75;17.50;;;2.50;72.80;;;;;;5069898;28;20032;-72
2022/01/16 04:49:24;;;;;;;32.67;17.88;;;2.40;73.00;;;;;;5067645;28;20025;-72
2022/01/16 04:51:50;;;;;;;31.27;17.50;;;2.50;72.90;;;;;;5050233;28;20029;-74
2022/01/16 04:54:16;;;;;;;26.60;16.25;;;2.60;72.70;;;;;;5050405;28;20485;-73
2022/01/16 04:56:42;;;;;;;28.55;16.63;;;2.70;72.40;;;;;;5067443;28;20040;-73
2022/01/16 04:59:07;;;;;;;29.60;17.83;;;2.70;72.20;;;;;;5066299;28;20036;-72
2022/01/16 05:01:34;;;;;;;31.63;18.15;;;2.70;72.40;;;;;;5069886;28;20527;-71
2022/01/16 05:03:59;;;;;;;30.75;17.98;;;2.60;72.60;;;;;;5067165;28;20047;-73
2022/01/16 05:06:25;;;;;;;32.08;18.10;;;2.60;72.70;;;;;;5068849;28;20024;-72
2022/01/16 05:08:51;;;;;;;31.35;18.40;;;2.50;72.90;;;;;;5070893;28;20024;-73
2022/01/16 05:11:24;;;;;;;29.45;17.92;;;2.50;73.20;;;;;;5068372;28;20031;-72
2022/01/16 05:19:01;;;;;;;28.00;16.83;;;2.60;72.90;;;;;;5063993;28;20143;-72
2022/01/16 05:21:27;;;;;;;31.27;17.70;;;2.70;72.60;;;;;;5068641;28;20103;-72
2022/01/16 05:23:52;;;;;;;32.38;17.35;;;2.80;72.30;;;;;;5070587;28;20638;-74
2022/01/16 05:26:25;;;;;;;32.22;18.65;;;2.80;72.10;;;;;;5069212;28;20043;-72
2022/01/16 05:28:51;;;;;;;32.47;18.20;;;2.80;72.00;;;;;;5068826;28;20465;-74
2022/01/16 05:31:17;;;;;;;28.63;17.25;;;2.80;71.90;;;;;;5066794;28;20029;-72
2022/01/16 05:33:42;;;;;;;30.45;18.90;;;2.80;71.80;;;;;;5068512;28;20048;-72
2022/01/16 05:36:08;;;;;;;36.90;18.42;;;2.80;71.50;;;;;;5068830;28;20473;-72
2022/01/16 05:38:34;;;;;;;30.88;17.58;;;2.80;71.60;;;;;;5068330;28;20031;-72
2022/01/16 05:41:00;;;;;;;27.35;16.80;;;2.90;71.60;;;;;;5067963;28;20491;-72
2022/01/16 05:43:25;;;;;;;37.95;18.58;;;2.90;71.70;;;;;;5050244;28;20114;-72
2022/01/16 05:45:52;;;;;;;34.78;18.80;;;2.80;71.50;;;;;;5068651;28;20036;-73
2022/01/16 05:48:19;;;;;;;32.00;17.23;;;2.80;71.40;;;;;;5069238;28;20025;-72
2022/01/16 05:50:45;;;;;;;30.77;18.33;;;2.80;71.50;;;;;;5051200;28;20465;-73
2022/01/16 05:53:11;;;;;;;33.42;17.95;;;2.90;71.60;;;;;;5050778;28;20086;-72
2022/01/16 05:55:37;;;;;;;31.50;17.50;;;2.90;71.60;;;;;;5067991;28;20039;-73
2022/01/16 05:58:10;;;;;;;33.47;17.90;;;2.90;71.60;;;;;;5067030;28;20043;-71
2022/01/16 06:00:38;;;;;;;30.70;18.45;;;2.90;71.60;;;;;;5068355;28;20029;-72
2022/01/16 06:03:06;;;;;;;29.48;17.55;;;2.90;71.40;;;;;;5065484;28;20152;-72
2022/01/16 06:05:32;;;;;;;32.38;17.90;;;2.90;71.60;;;;;;5068486;28;20115;-71
2022/01/16 06:08:07;;;;;;;30.88;17.02;;;2.90;71.60;;;;;;5051857;28;20482;-72
2022/01/16 06:10:34;;;;;;;30.70;17.95;;;2.90;71.50;;;;;;5060523;28;20028;-72
2022/01/16 06:13:02;;;;;;;33.67;18.70;;;2.90;71.30;;;;;;5069577;28;20052;-72
2022/01/16 06:15:28;;;;;;;30.20;17.77;;;2.90;71.40;;;;;;5050557;28;20036;-72
2022/01/16 06:17:53;;;;;;;33.03;17.63;;;2.90;71.40;;;;;;5052313;28;20032;-73
2022/01/16 06:20:19;;;;;;;32.67;17.27;;;2.90;71.30;;;;;;5068395;28;20405;-72
2022/01/16 06:22:46;;;;;;;29.33;16.88;;;2.90;71.20;;;;;;5048157;28;20055;-72
2022/01/16 06:25:13;;;;;;;30.85;17.33;;;2.90;71.30;;;;;;5067148;28;20035;-72
2022/01/16 06:27:40;;;;;;;34.47;18.50;;;3.00;71.30;;;;;;5069413;28;20028;-72
2022/01/16 06:30:08;;;;;;;33.20;19.20;;;2.90;71.00;;;;;;5067593;28;20036;-72
2022/01/16 06:32:35;;;;;;;27.52;17.25;;;2.80;71.20;;;;;;5066381;28;20052;-72
2022/01/16 06:35:00;;;;;;;30.52;17.08;;;2.80;71.50;;;;;;5066264;28;20043;-72
2022/01/16 06:37:26;;;;;;;28.95;17.55;;;2.90;71.60;;;;;;5049448;28;20032;-72
2022/01/16 06:39:52;;;;;;;36.72;19.23;;;2.90;71.50;;;;;;5066211;28;20544;-75
2022/01/16 06:42:18;;;;;;;32.22;18.10;;;2.90;71.30;;;;;;5066337;28;20098;-73
2022/01/16 06:44:43;;;;;;;29.98;17.77;;;3.00;71.20;;;;;;5066028;28;20126;-73
2022/01/16 06:47:09;;;;;;;33.78;17.70;;;2.90;71.10;;;;;;5065924;28;20525;-73
2022/01/16 06:49:35;;;;;;;30.92;17.85;;;2.90;71.10;;;;;;5066960;28;20402;-72
2022/01/16 06:52:01;;;;;;;30.02;16.52;;;3.00;71.10;;;;;;5066288;28;20060;-73
2022/01/16 06:54:26;;;;;;;32.35;18.45;;;3.00;71.00;;;;;;5069044;28;20122;-74
2022/01/16 06:56:52;;;;;;;31.35;18.00;;;3.00;71.00;;;;;;5067868;28;20440;-74
2022/01/16 06:59:18;;;;;;;32.45;19.00;;;3.00;70.90;;;;;;5067784;28;20453;-72
2022/01/16 07:01:44;;;;;;;32.58;18.90;;;2.90;70.90;;;;;;5068383;28;20384;-72
2022/01/16 07:04:09;;;;;;;31.10;18.55;;;2.90;71.00;;;;;;5051214;28;20424;-72
2022/01/16 07:06:35;;;;;;;29.42;18.80;;;2.90;71.00;;;;;;5070168;28;20024;-72
2022/01/16 07:09:01;;;;;;;35.10;18.63;;;2.90;71.10;;;;;;5066398;28;20036;-72
2022/01/16 07:11:26;;;;;;;35.05;19.75;;;2.90;71.20;;;;;;5064682;28;20023;-72
2022/01/16 07:13:52;;;;;;;33.50;19.48;;;3.00;71.20;;;;;;5068036;28;20053;-75
2022/01/16 07:16:18;;;;;;;34.70;19.85;;;3.10;71.00;;;;;;5049593;28;20025;-71
2022/01/16 07:18:43;;;;;;;37.15;20.10;;;3.10;70.60;;;;;;5051852;28;20115;-72
2022/01/16 07:21:13;;;;;;;36.05;20.00;;;3.10;70.70;;;;;;5067848;28;20482;-73
2022/01/16 07:23:46;;;;;;;35.38;20.13;;;3.10;70.60;;;;;;5049072;28;20491;-73
2022/01/16 07:26:15;;;;;;;;;;;3.10;70.50;;;;;;5047293;28;20020;-73
2022/01/16 07:28:40;;;;;;;39.40;20.70;;;3.10;70.70;;;;;;5066374;28;19959;-72
2022/01/16 07:31:06;;;;;;;39.97;21.02;;;3.20;70.50;;;;;;5066268;28;20059;-72
2022/01/16 07:33:32;;;;;;;40.78;20.02;;;3.20;70.00;;;;;;5053458;28;20037;-73
2022/01/16 07:35:57;;;;;;;35.40;20.48;;;3.20;70.30;;;;;;5064259;28;20047;-73
2022/01/16 07:38:23;;;;;;;35.35;20.35;;;3.30;70.40;;;;;;5064892;28;20393;-73
2022/01/16 07:40:49;;;;;;;35.70;19.55;;;3.40;70.10;;;;;;5048705;28;20032;-73
2022/01/16 07:43:15;;;;;;;44.90;21.05;;;3.40;69.80;;;;;;5054815;28;20020;-72
2022/01/16 07:45:41;;;;;;;38.10;22.70;;;3.40;69.50;;;;;;5058577;28;20187;-72
2022/01/16 07:48:07;;;;;;;35.50;23.85;;;4.10;71.50;;;;;;5057386;28;20024;-71
2022/01/16 07:50:35;;;;;;;37.92;23.15;;;6.00;67.20;;;;;;5046785;28;20039;-72
2022/01/16 07:53:00;;;;;;;38.78;26.52;;;7.40;62.20;;;;;;5065013;28;20449;-73
2022/01/16 07:55:26;;;;;;;40.58;31.73;;;8.00;59.30;;;;;;5071556;28;20115;-72
2022/01/16 07:57:53;;;;;;;37.88;29.13;;;7.70;56.30;;;;;;5071255;28;20028;-74
2022/01/16 08:00:20;;;;;;;33.63;18.92;;;7.30;56.70;;;;;;5071322;28;20048;-72
2022/01/16 08:02:47;;;;;;;27.75;18.80;;;6.80;58.20;;;;;;5072935;28;20488;-72
2022/01/16 08:05:15;;;;;;;32.03;19.40;;;6.40;58.60;;;;;;5053950;28;20332;-72
2022/01/16 08:07:41;;;;;;;31.50;20.42;;;6.20;59.70;;;;;;5073160;28;20032;-71
2022/01/16 08:10:07;;;;;;;35.33;20.95;;;5.90;59.80;;;;;;5069624;28;20028;-72
2022/01/16 08:12:33;;;;;;;34.50;20.52;;;5.60;60.20;;;;;;5070559;28;20029;-72
2022/01/16 08:15:00;;;;;;;33.65;20.63;;;5.50;60.60;;;;;;5071022;28;20040;-72
2022/01/16 08:17:26;;;;;;;36.95;20.95;;;5.30;61.40;;;;;;5071860;28;20025;-71
2022/01/16 08:19:53;;;;;;;34.10;19.90;;;5.20;61.50;;;;;;5068539;28;20537;-72
2022/01/16 08:22:19;;;;;;;32.45;19.33;;;5.10;61.80;;;;;;5050634;28;20060;-72
2022/01/16 08:24:44;;;;;;;34.30;21.63;;;5.00;62.10;;;;;;5067186;28;20060;-72
2022/01/16 08:27:10;;;;;;;33.13;20.13;;;4.90;62.30;;;;;;5066779;28;20103;-72
2022/01/16 08:29:36;;;;;;;32.40;20.25;;;4.80;62.70;;;;;;5068639;28;20031;-73
2022/01/16 08:32:02;;;;;;;35.70;21.25;;;4.90;63.00;;;;;;5065981;28;20037;-73
2022/01/16 08:34:27;;;;;;;37.25;20.40;;;4.90;62.90;;;;;;5069563;28;20122;-72
2022/01/16 08:36:53;;;;;;;30.25;20.80;;;4.90;62.90;;;;;;5049488;28;20029;-74
2022/01/16 08:39:19;;;;;;;35.42;21.30;;;4.80;62.90;;;;;;5066839;28;20482;-73
2022/01/16 08:41:45;;;;;;;33.08;20.65;;;4.60;63.30;;;;;;5069085;28;20033;-72
2022/01/16 08:44:10;;;;;;;32.83;20.48;;;4.50;63.70;;;;;;5068253;28;20480;-71
2022/01/16 08:46:36;;;;;;;35.03;20.65;;;4.40;64.20;;;;;;5071385;28;20036;-72
2022/01/16 08:49:02;;;;;;;34.78;21.33;;;4.40;64.50;;;;;;5067992;28;20090;-72
2022/01/16 08:51:28;;;;;;;38.05;22.45;;;4.60;64.40;;;;;;5070408;28;20028;-72
2022/01/16 08:53:54;;;;;;;37.90;21.67;;;4.60;64.10;;;;;;5067993;28;20044;-73
2022/01/16 08:56:20;;;;;;;36.53;23.02;;;4.50;64.00;;;;;;5069631;28;20075;-72
2022/01/16 09:01:31;;;;;;;39.20;22.48;;;4.50;64.70;;;;;;5062915;28;20063;-72
2022/01/16 09:03:57;;;;;;;39.92;23.63;;;4.40;64.60;;;;;;5058268;28;20722;-74
2022/01/16 09:06:22;;;;;;;35.88;22.00;;;4.50;64.80;;;;;;5058713;28;20036;-75
2022/01/16 09:08:48;;;;;;;39.13;23.25;;;4.40;64.50;;;;;;5070331;28;20029;-75
2022/01/16 09:11:14;;;;;;;42.92;23.20;;;4.50;64.70;;;;;;5052165;28;20029;-74
2022/01/16 09:13:41;;;;;;;39.28;23.52;;;4.50;64.70;;;;;;5053830;28;20113;-71
2022/01/16 09:16:07;;;;;;;39.05;23.88;;;4.50;64.60;;;;;;5077764;28;20081;-69
2022/01/16 09:18:33;;;;;;;41.03;24.88;;;4.50;64.70;;;;;;5087052;28;20045;-74
2022/01/16 09:21:01;;;;;;;44.75;26.95;;;4.60;64.50;;;;;;5104562;28;20024;-65
2022/01/16 09:23:28;;;;;;;53.40;28.45;;;4.60;64.40;;;;;;5082575;28;20527;-70
2022/01/16 09:25:53;;;;;;;61.30;32.20;;;4.60;64.70;;;;;;5079861;28;20046;-74
2022/01/16 09:28:19;;;;;;;45.08;25.80;;;4.80;65.10;;;;;;5091457;28;20028;-76
2022/01/16 09:30:45;;;;;;;48.60;24.95;;;4.70;64.00;;;;;;5089976;28;20032;-75
2022/01/16 09:33:11;;;;;;;40.05;23.45;;;4.80;64.00;;;;;;5092210;28;20036;-75
2022/01/16 09:35:36;;;;;;;37.72;23.25;;;4.80;64.00;;;;;;5092307;28;20035;-75
2022/01/16 09:38:04;;;;;;;44.40;24.67;;;4.80;63.80;;;;;;5081916;28;20111;-74
2022/01/16 09:40:30;;;;;;;38.22;22.35;;;4.80;64.00;;;;;;5088041;28;20019;-75
2022/01/16 09:42:56;;;;;;;39.45;23.30;;;5.00;63.80;;;;;;5087994;28;20024;-74
2022/01/16 09:45:22;;;;;;;36.28;23.08;;;5.00;63.40;;;;;;5091692;28;20077;-74
2022/01/16 09:47:48;;;;;;;38.00;22.55;;;5.00;63.40;;;;;;5086275;28;20028;-74
2022/01/16 09:50:18;;;;;;;36.88;22.77;;;4.90;63.40;;;;;;5084037;28;20031;-74
2022/01/16 09:52:45;;;;;;;37.63;22.90;;;5.00;63.30;;;;;;5095277;28;20024;-73
2022/01/16 09:55:12;;;;;;;43.08;23.92;;;5.10;63.20;;;;;;5074728;28;20111;-74
2022/01/16 09:57:38;;;;;;;45.42;24.23;;;5.10;63.00;;;;;;5092314;28;20032;-75
2022/01/16 10:00:07;;;;;;;43.13;22.73;;;5.20;63.20;;;;;;5084307;28;20044;-72
2022/01/16 10:02:33;;;;;;;39.40;22.65;;;5.30;62.60;;;;;;5087674;28;20031;-74
2022/01/16 10:04:58;;;;;;;35.17;23.63;;;5.40;62.40;;;;;;5080868;28;20465;-74
2022/01/16 10:07:24;;;;;;;36.40;22.45;;;5.50;62.40;;;;;;5087619;28;20487;-72
2022/01/16 10:10:12;;;;;;;39.38;23.63;;;5.60;61.90;;;;;;5088628;28;20134;-74
2022/01/16 10:12:46;;;;;;;34.80;21.98;;;5.60;61.70;;;;;;5081508;28;20053;-72
2022/01/16 10:15:20;;;;;;;37.83;24.27;;;5.80;61.50;;;;;;5045436;28;20037;-74
2022/01/16 10:17:51;;;;;;;33.58;21.27;;;5.90;61.30;;;;;;5060260;28;20043;-74
2022/01/16 10:20:18;;;;;;;35.70;22.55;;;5.90;60.60;;;;;;5066292;28;20112;-74
2022/01/16 10:22:47;;;;;;;36.03;22.52;;;5.80;60.60;;;;;;5069901;28;20024;-74
2022/01/16 10:25:15;;;;;;;34.05;22.92;;;5.80;61.00;;;;;;5072125;28;20036;-72
2022/01/16 10:27:43;;;;;;;35.25;23.92;;;5.90;60.90;;;;;;5052448;28;20028;-72
2022/01/16 10:30:14;;;;;;;35.60;21.80;;;6.00;60.80;;;;;;5067652;28;20040;-71
2022/01/16 10:32:45;;;;;;;39.35;22.52;;;6.10;60.40;;;;;;5069883;28;20027;-72
2022/01/16 10:35:14;;;;;;;33.08;22.02;;;6.20;60.10;;;;;;5066264;28;20041;-72
2022/01/16 10:37:45;;;;;;;36.45;23.38;;;6.30;60.00;;;;;;5070367;28;20104;-72
2022/01/16 10:40:14;;;;;;;39.30;22.15;;;6.40;60.10;;;;;;5076454;28;20062;-73
2022/01/16 10:42:40;;;;;;;36.70;22.27;;;6.40;59.70;;;;;;5070484;28;20032;-72
2022/01/16 10:45:10;;;;;;;33.92;21.98;;;6.50;59.60;;;;;;5053164;28;20040;-72
2022/01/16 10:47:38;;;;;;;35.47;21.98;;;6.70;59.40;;;;;;5036574;28;20029;-71
2022/01/16 10:50:14;;;;;;;36.13;21.77;;;7.40;59.10;;;;;;5070187;28;20033;-71
2022/01/16 10:52:48;;;;;;;30.15;20.90;;;8.40;57.80;;;;;;5071381;28;20024;-72
2022/01/16 10:55:14;;;;;;;;;;;9.50;55.60;;;;;;5071656;28;20147;-73
2022/01/16 10:57:40;;;;;;;30.85;19.67;;;9.90;51.80;;;;;;5071066;28;19958;-71
2022/01/16 11:00:33;;;;;;;37.78;21.33;;;9.80;51.50;;;;;;5052117;28;20035;-72
2022/01/16 11:03:01;;;;;;;35.38;23.15;;;9.70;50.90;;;;;;5047616;28;20094;-72
2022/01/16 11:05:28;;;;;;;37.60;23.85;;;9.20;51.50;;;;;;5053462;28;20066;-73
2022/01/16 11:08:04;;;;;;;34.95;22.52;;;8.50;52.50;;;;;;5070352;28;20034;-76
2022/01/16 11:10:30;;;;;;;40.10;24.70;;;8.10;53.80;;;;;;5070770;28;20072;-76
2022/01/16 11:12:59;;;;;;;42.28;23.58;;;7.90;55.10;;;;;;5070536;28;20051;-71
2022/01/16 11:15:26;;;;;;;36.92;22.42;;;7.80;54.90;;;;;;5053006;28;20051;-72
2022/01/16 11:17:52;;;;;;;41.75;24.85;;;7.50;55.50;;;;;;5069891;28;20470;-72
2022/01/16 11:20:26;;;;;;;34.97;21.77;;;7.20;56.60;;;;;;5053293;28;20056;-74
2022/01/16 11:23:05;;;;;;;32.60;22.98;;;7.10;57.20;;;;;;5052606;28;20488;-73
2022/01/16 11:25:36;;;;;;;32.35;22.02;;;7.10;57.70;;;;;;5070122;28;20119;-71
2022/01/16 11:28:08;;;;;;;36.33;22.13;;;7.10;57.90;;;;;;5052028;28;20024;-73
2022/01/16 11:30:38;;;;;;;33.25;21.25;;;7.00;57.80;;;;;;5052762;28;20426;-72
2022/01/16 11:33:04;;;;;;;36.28;21.15;;;7.00;57.90;;;;;;5052084;28;20543;-73
2022/01/16 11:35:33;;;;;;;31.25;21.17;;;6.90;58.20;;;;;;5069594;28;20056;-74
2022/01/16 11:37:59;;;;;;;35.40;21.58;;;6.90;58.40;;;;;;5066246;28;20078;-75
2022/01/16 11:40:38;;;;;;;37.22;21.30;;;7.10;58.50;;;;;;5071194;28;20032;-75
2022/01/16 11:43:34;;;;;;;63.78;35.97;;;7.20;58.00;;;;;;5070629;28;20025;-72
2022/01/16 11:46:06;;;;;;;40.28;24.77;;;7.20;57.80;;;;;;5070288;28;20033;-72
2022/01/16 11:48:40;;;;;;;36.53;20.85;;;7.20;57.90;;;;;;5046955;28;20385;-73
2022/01/16 11:51:40;;;;;;;36.83;21.77;;;7.10;57.80;;;;;;5065103;28;20075;-72
2022/01/16 11:54:23;;;;;;;36.83;20.38;;;6.90;58.20;;;;;;5060151;28;20043;-73
2022/01/16 11:56:54;;;;;;;34.67;21.13;;;6.80;58.50;;;;;;5068828;28;20024;-67
2022/01/16 11:59:41;;;;;;;35.65;21.92;;;6.90;58.90;;;;;;5051476;28;20074;-70
2022/01/16 12:02:10;;;;;;;34.25;22.52;;;7.20;59.10;;;;;;5055700;28;20039;-71
2022/01/16 12:04:38;;;;;;;32.08;20.98;;;8.30;57.10;;;;;;5051444;28;20028;-70
2022/01/16 12:07:13;;;;;;;50.15;26.58;;;8.40;55.10;;;;;;5050786;28;20028;-74
2022/01/16 12:09:46;;;;;;;39.72;23.30;;;8.30;54.70;;;;;;5052285;28;20028;-73
2022/01/16 12:12:12;;;;;;;35.60;21.52;;;8.20;55.30;;;;;;5044069;28;20168;-73
2022/01/16 12:14:49;;;;;;;30.08;19.33;;;8.10;55.50;;;;;;5067792;28;20525;-74
2022/01/16 12:20:30;;;;;;;35.08;21.95;;;8.10;55.60;;;;;;5068135;28;20421;-72
2022/01/16 12:23:08;;;;;;;35.85;22.50;;;7.90;55.50;;;;;;5088094;28;20020;-72
2022/01/16 12:26:03;;;;;;;33.90;22.40;;;7.80;55.90;;;;;;5089105;28;20055;-72
2022/01/16 12:28:29;;;;;;;41.88;21.77;;;7.70;56.20;;;;;;5075653;28;20042;-72
2022/01/16 12:31:01;;;;;;;31.80;20.83;;;7.70;56.40;;;;;;5089687;28;20103;-73
2022/01/16 12:33:47;;;;;;;33.90;22.55;;;7.70;56.50;;;;;;5090854;28;20075;-71
2022/01/16 12:36:13;;;;;;;34.85;20.60;;;7.70;56.50;;;;;;5089902;28;20035;-72
2022/01/16 12:38:49;;;;;;;31.95;20.23;;;7.80;56.60;;;;;;5091864;28;20024;-73
2022/01/16 12:41:24;;;;;;;30.02;19.13;;;7.80;56.60;;;;;;5093904;28;20031;-72
2022/01/16 12:43:57;;;;;;;36.92;21.48;;;7.90;56.40;;;;;;5091369;28;20480;-73
2022/01/16 12:46:36;;;;;;;37.92;21.45;;;8.00;56.40;;;;;;5092238;28;20063;-73
2022/01/16 12:49:15;;;;;;;33.67;20.88;;;8.20;56.20;;;;;;5072273;28;20029;-74
2022/01/16 12:51:44;;;;;;;30.27;20.92;;;8.30;55.60;;;;;;5085714;28;20081;-72
2022/01/16 12:54:16;;;;;;;36.40;21.35;;;8.30;55.80;;;;;;5073198;28;20112;-75
2022/01/16 12:56:44;;;;;;;35.90;21.40;;;8.60;55.70;;;;;;5083149;28;20489;-73
2022/01/16 12:59:12;;;;;;;30.08;20.63;;;8.70;55.00;;;;;;5091698;28;20089;-73
2022/01/16 13:01:51;;;;;;;29.02;19.67;;;8.80;54.50;;;;;;5092875;28;20020;-74
2022/01/16 13:04:28;;;;;;;23.92;14.98;;;8.90;54.70;;;;;;5092797;28;20089;-72
2022/01/16 13:07:15;;;;;;;18.80;12.13;;;9.00;53.70;;;;;;5093380;28;20024;-72
2022/01/16 13:09:41;;;;;;;18.58;12.50;;;9.00;52.20;;;;;;5088157;28;20075;-71
2022/01/16 13:14:52;;;;;;;19.30;12.55;;;9.10;52.50;;;;;;5093524;28;20066;-70
2022/01/16 13:17:18;;;;;;;18.00;11.85;;;9.00;52.30;;;;;;5093036;28;20464;-74
2022/01/16 13:19:54;;;;;;;16.90;11.80;;;9.00;52.50;;;;;;5089265;28;20120;-76
2022/01/16 13:22:25;;;;;;;18.10;12.40;;;8.90;52.50;;;;;;5087837;28;20465;-70
2022/01/16 13:25:00;;;;;;;19.73;12.52;;;8.90;52.40;;;;;;5089757;28;20044;-73
2022/01/16 13:27:31;;;;;;;22.13;13.00;;;8.80;52.30;;;;;;5085073;28;20472;-73
2022/01/16 13:30:13;;;;;;;20.40;12.80;;;8.70;52.30;;;;;;5086976;28;20042;-72
2022/01/16 13:32:41;;;;;;;18.80;12.13;;;8.60;52.40;;;;;;5089662;28;20028;-72
2022/01/16 13:35:21;;;;;;;20.10;13.32;;;8.60;52.60;;;;;;5084344;28;20103;-67
2022/01/16 13:37:47;;;;;;;16.88;12.02;;;8.70;52.30;;;;;;5090217;28;20128;-68
2022/01/16 13:40:15;;;;;;;19.08;12.55;;;8.60;52.50;;;;;;5089560;28;20096;-67
2022/01/16 13:43:02;;;;;;;21.20;12.98;;;8.60;52.70;;;;;;5091513;28;20073;-67